sensor_id;sensor_type;location;lat;lon;timestamp;P1;durP1;ratioP1;P2;durP2;ratioP2
9260;SDS011;4667;42.726;23.252;2023-06-10T00:01:20;5.68;;;4.55;;
9260;SDS011;4667;42.726;23.252;2023-06-10T00:03:49;9.35;;;4.70;;
9260;SDS011;4667;42.726;23.252;2023-06-10T00:06:16;5.70;;;4.32;;
9260;SDS011;4667;42.726;23.252;2023-06-10T00:08:43;5.78;;;4.32;;
9260;SDS011;4667;42.726;23.252;2023-06-10T00:11:12;11.45;;;5.20;;
9260;SDS011;4667;42.726;23.252;2023-06-10T00:13:39;6.75;;;4.78;;
9260;SDS011;4667;42.726;23.252;2023-06-10T00:16:06;9.60;;;4.88;;
9260;SDS011;4667;42.726;23.252;2023-06-10T00:18:33;9.98;;;5.57;;
9260;SDS011;4667;42.726;23.252;2023-06-10T00:21:03;11.15;;;5.75;;
9260;SDS011;4667;42.726;23.252;2023-06-10T00:23:30;10.88;;;6.07;;
9260;SDS011;4667;42.726;23.252;2023-06-10T00:26:03;6.20;;;5.07;;
9260;SDS011;4667;42.726;23.252;2023-06-10T00:28:30;10.23;;;5.13;;
9260;SDS011;4667;42.726;23.252;2023-06-10T00:30:56;7.95;;;4.88;;
9260;SDS011;4667;42.726;23.252;2023-06-10T00:33:23;6.70;;;4.82;;
9260;SDS011;4667;42.726;23.252;2023-06-10T00:35:50;7.20;;;5.28;;
9260;SDS011;4667;42.726;23.252;2023-06-10T00:38:18;6.13;;;4.85;;
9260;SDS011;4667;42.726;23.252;2023-06-10T00:40:45;7.07;;;5.88;;
9260;SDS011;4667;42.726;23.252;2023-06-10T00:43:12;7.78;;;5.15;;
9260;SDS011;4667;42.726;23.252;2023-06-10T00:45:39;7.97;;;5.55;;
9260;SDS011;4667;42.726;23.252;2023-06-10T00:48:05;8.82;;;6.10;;
9260;SDS011;4667;42.726;23.252;2023-06-10T00:50:33;9.48;;;5.85;;
9260;SDS011;4667;42.726;23.252;2023-06-10T00:53:00;7.07;;;5.00;;
9260;SDS011;4667;42.726;23.252;2023-06-10T00:55:29;6.90;;;5.20;;
9260;SDS011;4667;42.726;23.252;2023-06-10T00:57:56;8.95;;;5.93;;
9260;SDS011;4667;42.726;23.252;2023-06-10T01:00:23;8.82;;;5.15;;
9260;SDS011;4667;42.726;23.252;2023-06-10T01:02:50;10.38;;;5.25;;
9260;SDS011;4667;42.726;23.252;2023-06-10T01:05:18;11.65;;;5.80;;
9260;SDS011;4667;42.726;23.252;2023-06-10T01:07:47;8.23;;;5.63;;
9260;SDS011;4667;42.726;23.252;2023-06-10T01:10:20;8.00;;;6.32;;
9260;SDS011;4667;42.726;23.252;2023-06-10T01:12:55;9.68;;;5.75;;
9260;SDS011;4667;42.726;23.252;2023-06-10T01:15:27;6.32;;;5.18;;
9260;SDS011;4667;42.726;23.252;2023-06-10T01:17:56;6.15;;;5.03;;
9260;SDS011;4667;42.726;23.252;2023-06-10T01:20:24;7.70;;;5.57;;
9260;SDS011;4667;42.726;23.252;2023-06-10T01:22:54;6.07;;;5.13;;
9260;SDS011;4667;42.726;23.252;2023-06-10T01:25:23;10.43;;;5.80;;
9260;SDS011;4667;42.726;23.252;2023-06-10T01:27:53;8.02;;;5.82;;
9260;SDS011;4667;42.726;23.252;2023-06-10T01:30:26;9.63;;;5.20;;
9260;SDS011;4667;42.726;23.252;2023-06-10T01:32:58;8.02;;;5.32;;
9260;SDS011;4667;42.726;23.252;2023-06-10T01:35:27;6.07;;;5.30;;
9260;SDS011;4667;42.726;23.252;2023-06-10T01:37:58;8.48;;;4.95;;
9260;SDS011;4667;42.726;23.252;2023-06-10T01:40:26;9.73;;;4.78;;
9260;SDS011;4667;42.726;23.252;2023-06-10T01:42:54;6.78;;;4.78;;
9260;SDS011;4667;42.726;23.252;2023-06-10T01:45:21;6.93;;;4.75;;
9260;SDS011;4667;42.726;23.252;2023-06-10T01:47:47;6.22;;;4.68;;
9260;SDS011;4667;42.726;23.252;2023-06-10T01:50:14;6.88;;;4.90;;
9260;SDS011;4667;42.726;23.252;2023-06-10T01:52:41;6.25;;;4.82;;
9260;SDS011;4667;42.726;23.252;2023-06-10T01:55:09;6.82;;;4.75;;
9260;SDS011;4667;42.726;23.252;2023-06-10T01:57:36;5.47;;;4.55;;
9260;SDS011;4667;42.726;23.252;2023-06-10T02:00:03;6.05;;;4.70;;
9260;SDS011;4667;42.726;23.252;2023-06-10T02:02:30;9.25;;;4.70;;
9260;SDS011;4667;42.726;23.252;2023-06-10T02:04:57;6.53;;;4.38;;
9260;SDS011;4667;42.726;23.252;2023-06-10T02:07:24;5.47;;;4.47;;
9260;SDS011;4667;42.726;23.252;2023-06-10T02:09:50;6.78;;;5.40;;
9260;SDS011;4667;42.726;23.252;2023-06-10T02:12:18;6.70;;;4.13;;
9260;SDS011;4667;42.726;23.252;2023-06-10T02:14:45;6.82;;;4.95;;
9260;SDS011;4667;42.726;23.252;2023-06-10T02:17:12;7.70;;;4.57;;
9260;SDS011;4667;42.726;23.252;2023-06-10T02:19:39;6.13;;;4.85;;
9260;SDS011;4667;42.726;23.252;2023-06-10T02:22:07;6.03;;;4.57;;
9260;SDS011;4667;42.726;23.252;2023-06-10T02:24:35;7.75;;;5.10;;
9260;SDS011;4667;42.726;23.252;2023-06-10T02:27:03;6.57;;;5.15;;
9260;SDS011;4667;42.726;23.252;2023-06-10T02:29:33;7.50;;;5.45;;
9260;SDS011;4667;42.726;23.252;2023-06-10T02:32:01;8.23;;;5.15;;
9260;SDS011;4667;42.726;23.252;2023-06-10T02:34:28;10.82;;;5.15;;
9260;SDS011;4667;42.726;23.252;2023-06-10T02:36:56;5.80;;;4.57;;
9260;SDS011;4667;42.726;23.252;2023-06-10T02:39:22;6.88;;;4.97;;
9260;SDS011;4667;42.726;23.252;2023-06-10T02:41:49;6.72;;;4.85;;
9260;SDS011;4667;42.726;23.252;2023-06-10T02:44:17;7.43;;;4.97;;
9260;SDS011;4667;42.726;23.252;2023-06-10T02:46:45;10.55;;;5.65;;
9260;SDS011;4667;42.726;23.252;2023-06-10T02:49:12;7.22;;;5.25;;
9260;SDS011;4667;42.726;23.252;2023-06-10T02:51:39;5.57;;;5.03;;
9260;SDS011;4667;42.726;23.252;2023-06-10T02:54:06;7.03;;;5.28;;
9260;SDS011;4667;42.726;23.252;2023-06-10T02:56:32;6.57;;;5.75;;
9260;SDS011;4667;42.726;23.252;2023-06-10T02:59:00;7.53;;;6.03;;
9260;SDS011;4667;42.726;23.252;2023-06-10T03:01:26;9.93;;;5.63;;
9260;SDS011;4667;42.726;23.252;2023-06-10T03:03:54;7.72;;;6.20;;
9260;SDS011;4667;42.726;23.252;2023-06-10T03:06:21;7.72;;;5.20;;
9260;SDS011;4667;42.726;23.252;2023-06-10T03:08:50;8.25;;;5.72;;
9260;SDS011;4667;42.726;23.252;2023-06-10T03:11:16;8.40;;;5.25;;
9260;SDS011;4667;42.726;23.252;2023-06-10T03:13:44;9.43;;;6.68;;
9260;SDS011;4667;42.726;23.252;2023-06-10T03:16:11;7.80;;;5.95;;
9260;SDS011;4667;42.726;23.252;2023-06-10T03:18:38;8.10;;;6.05;;
9260;SDS011;4667;42.726;23.252;2023-06-10T03:21:06;6.32;;;5.18;;
9260;SDS011;4667;42.726;23.252;2023-06-10T03:23:34;10.95;;;5.72;;
9260;SDS011;4667;42.726;23.252;2023-06-10T03:26:01;7.53;;;5.95;;
9260;SDS011;4667;42.726;23.252;2023-06-10T03:28:29;7.20;;;5.72;;
9260;SDS011;4667;42.726;23.252;2023-06-10T03:30:56;11.70;;;6.47;;
9260;SDS011;4667;42.726;23.252;2023-06-10T03:33:23;7.72;;;5.80;;
9260;SDS011;4667;42.726;23.252;2023-06-10T03:35:51;8.98;;;6.40;;
9260;SDS011;4667;42.726;23.252;2023-06-10T03:38:19;8.48;;;6.13;;
9260;SDS011;4667;42.726;23.252;2023-06-10T03:40:46;9.70;;;6.95;;
9260;SDS011;4667;42.726;23.252;2023-06-10T03:43:13;11.10;;;6.40;;
9260;SDS011;4667;42.726;23.252;2023-06-10T03:45:40;7.20;;;5.55;;
9260;SDS011;4667;42.726;23.252;2023-06-10T03:48:07;8.50;;;5.38;;
9260;SDS011;4667;42.726;23.252;2023-06-10T03:50:34;7.22;;;5.78;;
9260;SDS011;4667;42.726;23.252;2023-06-10T03:53:02;7.10;;;5.78;;
9260;SDS011;4667;42.726;23.252;2023-06-10T03:55:30;8.95;;;6.18;;
9260;SDS011;4667;42.726;23.252;2023-06-10T03:57:57;9.60;;;6.00;;
9260;SDS011;4667;42.726;23.252;2023-06-10T04:00:24;9.65;;;5.72;;
9260;SDS011;4667;42.726;23.252;2023-06-10T04:02:50;6.53;;;5.25;;
9260;SDS011;4667;42.726;23.252;2023-06-10T04:05:17;8.70;;;6.30;;
9260;SDS011;4667;42.726;23.252;2023-06-10T04:07:46;8.90;;;5.22;;
9260;SDS011;4667;42.726;23.252;2023-06-10T04:10:13;6.28;;;5.18;;
9260;SDS011;4667;42.726;23.252;2023-06-10T04:12:42;7.90;;;5.50;;
9260;SDS011;4667;42.726;23.252;2023-06-10T04:15:09;6.50;;;5.50;;
9260;SDS011;4667;42.726;23.252;2023-06-10T04:17:36;7.50;;;4.50;;
9260;SDS011;4667;42.726;23.252;2023-06-10T04:20:03;7.68;;;5.75;;
9260;SDS011;4667;42.726;23.252;2023-06-10T04:22:32;5.50;;;5.00;;
9260;SDS011;4667;42.726;23.252;2023-06-10T04:24:59;6.70;;;4.97;;
9260;SDS011;4667;42.726;23.252;2023-06-10T04:27:26;9.55;;;5.40;;
9260;SDS011;4667;42.726;23.252;2023-06-10T04:29:54;12.10;;;5.25;;
9260;SDS011;4667;42.726;23.252;2023-06-10T04:32:20;8.93;;;5.00;;
9260;SDS011;4667;42.726;23.252;2023-06-10T04:34:47;8.45;;;5.50;;
9260;SDS011;4667;42.726;23.252;2023-06-10T04:37:15;5.88;;;5.28;;
9260;SDS011;4667;42.726;23.252;2023-06-10T04:39:42;8.35;;;5.25;;
9260;SDS011;4667;42.726;23.252;2023-06-10T04:42:09;5.47;;;4.93;;
9260;SDS011;4667;42.726;23.252;2023-06-10T04:44:35;12.05;;;6.05;;
9260;SDS011;4667;42.726;23.252;2023-06-10T04:47:04;8.35;;;4.82;;
9260;SDS011;4667;42.726;23.252;2023-06-10T04:49:32;7.07;;;5.07;;
9260;SDS011;4667;42.726;23.252;2023-06-10T04:51:59;5.82;;;5.20;;
9260;SDS011;4667;42.726;23.252;2023-06-10T04:54:26;15.93;;;5.13;;
9260;SDS011;4667;42.726;23.252;2023-06-10T04:56:54;7.50;;;4.97;;
9260;SDS011;4667;42.726;23.252;2023-06-10T04:59:21;8.02;;;4.53;;
9260;SDS011;4667;42.726;23.252;2023-06-10T05:01:48;6.90;;;4.88;;
9260;SDS011;4667;42.726;23.252;2023-06-10T05:04:16;8.68;;;4.90;;
9260;SDS011;4667;42.726;23.252;2023-06-10T05:06:43;5.30;;;4.63;;
9260;SDS011;4667;42.726;23.252;2023-06-10T05:09:09;5.18;;;4.03;;
9260;SDS011;4667;42.726;23.252;2023-06-10T05:11:36;6.88;;;4.20;;
9260;SDS011;4667;42.726;23.252;2023-06-10T05:14:03;7.45;;;4.85;;
9260;SDS011;4667;42.726;23.252;2023-06-10T05:16:30;6.93;;;4.60;;
9260;SDS011;4667;42.726;23.252;2023-06-10T05:18:57;9.57;;;4.85;;
9260;SDS011;4667;42.726;23.252;2023-06-10T05:21:25;6.82;;;4.50;;
9260;SDS011;4667;42.726;23.252;2023-06-10T05:23:51;6.93;;;4.65;;
9260;SDS011;4667;42.726;23.252;2023-06-10T05:26:18;5.82;;;4.28;;
9260;SDS011;4667;42.726;23.252;2023-06-10T05:28:45;5.05;;;4.35;;
9260;SDS011;4667;42.726;23.252;2023-06-10T05:31:12;8.10;;;4.53;;
9260;SDS011;4667;42.726;23.252;2023-06-10T05:33:39;7.82;;;4.50;;
9260;SDS011;4667;42.726;23.252;2023-06-10T05:36:06;9.90;;;5.43;;
9260;SDS011;4667;42.726;23.252;2023-06-10T05:38:34;6.05;;;4.00;;
9260;SDS011;4667;42.726;23.252;2023-06-10T05:41:01;5.68;;;4.10;;
9260;SDS011;4667;42.726;23.252;2023-06-10T05:43:28;9.32;;;4.57;;
9260;SDS011;4667;42.726;23.252;2023-06-10T05:45:55;5.65;;;4.38;;
9260;SDS011;4667;42.726;23.252;2023-06-10T05:48:22;8.38;;;4.25;;
9260;SDS011;4667;42.726;23.252;2023-06-10T05:50:48;5.18;;;4.22;;
9260;SDS011;4667;42.726;23.252;2023-06-10T05:53:15;6.55;;;4.38;;
9260;SDS011;4667;42.726;23.252;2023-06-10T05:55:44;4.82;;;4.28;;
9260;SDS011;4667;42.726;23.252;2023-06-10T05:58:12;5.88;;;4.53;;
9260;SDS011;4667;42.726;23.252;2023-06-10T06:00:40;6.55;;;4.57;;
9260;SDS011;4667;42.726;23.252;2023-06-10T06:03:07;5.80;;;5.00;;
9260;SDS011;4667;42.726;23.252;2023-06-10T06:05:34;7.70;;;5.20;;
9260;SDS011;4667;42.726;23.252;2023-06-10T06:08:02;5.18;;;4.18;;
9260;SDS011;4667;42.726;23.252;2023-06-10T06:10:29;4.43;;;4.03;;
9260;SDS011;4667;42.726;23.252;2023-06-10T06:12:58;4.55;;;4.15;;
9260;SDS011;4667;42.726;23.252;2023-06-10T06:15:24;5.72;;;4.45;;
9260;SDS011;4667;42.726;23.252;2023-06-10T06:17:51;8.05;;;6.10;;
9260;SDS011;4667;42.726;23.252;2023-06-10T06:20:18;6.30;;;4.13;;
9260;SDS011;4667;42.726;23.252;2023-06-10T06:22:45;4.50;;;3.90;;
9260;SDS011;4667;42.726;23.252;2023-06-10T06:25:12;5.75;;;4.07;;
9260;SDS011;4667;42.726;23.252;2023-06-10T06:27:39;6.32;;;4.80;;
9260;SDS011;4667;42.726;23.252;2023-06-10T06:30:07;6.70;;;4.70;;
9260;SDS011;4667;42.726;23.252;2023-06-10T06:32:35;9.40;;;4.63;;
9260;SDS011;4667;42.726;23.252;2023-06-10T06:35:01;6.05;;;4.30;;
9260;SDS011;4667;42.726;23.252;2023-06-10T06:37:31;7.00;;;4.50;;
9260;SDS011;4667;42.726;23.252;2023-06-10T06:39:59;5.82;;;4.50;;
9260;SDS011;4667;42.726;23.252;2023-06-10T06:42:26;11.70;;;4.22;;
9260;SDS011;4667;42.726;23.252;2023-06-10T06:44:52;5.80;;;5.10;;
9260;SDS011;4667;42.726;23.252;2023-06-10T06:47:20;6.20;;;4.47;;
9260;SDS011;4667;42.726;23.252;2023-06-10T06:49:48;4.88;;;4.03;;
9260;SDS011;4667;42.726;23.252;2023-06-10T06:52:15;9.82;;;3.88;;
9260;SDS011;4667;42.726;23.252;2023-06-10T06:54:42;4.55;;;3.75;;
9260;SDS011;4667;42.726;23.252;2023-06-10T06:57:08;5.90;;;3.90;;
9260;SDS011;4667;42.726;23.252;2023-06-10T06:59:35;4.82;;;4.07;;
9260;SDS011;4667;42.726;23.252;2023-06-10T07:02:03;5.38;;;3.40;;
9260;SDS011;4667;42.726;23.252;2023-06-10T07:04:31;5.18;;;4.22;;
9260;SDS011;4667;42.726;23.252;2023-06-10T07:06:58;5.80;;;4.32;;
9260;SDS011;4667;42.726;23.252;2023-06-10T07:09:24;13.63;;;6.15;;
9260;SDS011;4667;42.726;23.252;2023-06-10T07:11:51;5.65;;;4.35;;
9260;SDS011;4667;42.726;23.252;2023-06-10T07:14:18;5.63;;;4.35;;
9260;SDS011;4667;42.726;23.252;2023-06-10T07:16:45;6.63;;;4.80;;
9260;SDS011;4667;42.726;23.252;2023-06-10T07:19:13;5.85;;;4.15;;
9260;SDS011;4667;42.726;23.252;2023-06-10T07:21:41;4.30;;;3.72;;
9260;SDS011;4667;42.726;23.252;2023-06-10T07:24:08;7.50;;;5.00;;
9260;SDS011;4667;42.726;23.252;2023-06-10T07:26:35;5.35;;;3.65;;
9260;SDS011;4667;42.726;23.252;2023-06-10T07:29:01;4.97;;;3.42;;
9260;SDS011;4667;42.726;23.252;2023-06-10T07:31:28;4.50;;;3.00;;
9260;SDS011;4667;42.726;23.252;2023-06-10T07:33:55;6.20;;;3.10;;
9260;SDS011;4667;42.726;23.252;2023-06-10T07:36:21;10.10;;;6.57;;
9260;SDS011;4667;42.726;23.252;2023-06-10T07:38:50;5.50;;;3.33;;
9260;SDS011;4667;42.726;23.252;2023-06-10T07:41:16;7.65;;;3.30;;
9260;SDS011;4667;42.726;23.252;2023-06-10T07:43:44;4.93;;;3.28;;
9260;SDS011;4667;42.726;23.252;2023-06-10T07:46:11;3.65;;;3.03;;
9260;SDS011;4667;42.726;23.252;2023-06-10T07:48:38;9.43;;;3.70;;
9260;SDS011;4667;42.726;23.252;2023-06-10T07:51:04;5.10;;;2.97;;
9260;SDS011;4667;42.726;23.252;2023-06-10T07:53:31;4.18;;;3.53;;
9260;SDS011;4667;42.726;23.252;2023-06-10T07:55:59;3.45;;;2.95;;
9260;SDS011;4667;42.726;23.252;2023-06-10T07:58:27;4.28;;;2.88;;
9260;SDS011;4667;42.726;23.252;2023-06-10T08:00:54;3.90;;;3.15;;
9260;SDS011;4667;42.726;23.252;2023-06-10T08:03:20;4.40;;;2.92;;
9260;SDS011;4667;42.726;23.252;2023-06-10T08:05:47;5.13;;;3.40;;
9260;SDS011;4667;42.726;23.252;2023-06-10T08:08:14;5.57;;;3.88;;
9260;SDS011;4667;42.726;23.252;2023-06-10T08:10:41;4.32;;;3.22;;
9260;SDS011;4667;42.726;23.252;2023-06-10T08:13:09;13.25;;;6.47;;
9260;SDS011;4667;42.726;23.252;2023-06-10T08:15:36;10.73;;;3.55;;
9260;SDS011;4667;42.726;23.252;2023-06-10T08:18:06;9.77;;;5.25;;
9260;SDS011;4667;42.726;23.252;2023-06-10T08:20:33;7.97;;;4.75;;
9260;SDS011;4667;42.726;23.252;2023-06-10T08:23:00;4.45;;;3.28;;
9260;SDS011;4667;42.726;23.252;2023-06-10T08:25:27;3.90;;;3.08;;
9260;SDS011;4667;42.726;23.252;2023-06-10T08:27:54;3.60;;;2.67;;
9260;SDS011;4667;42.726;23.252;2023-06-10T08:30:23;3.88;;;2.85;;
9260;SDS011;4667;42.726;23.252;2023-06-10T08:32:49;4.30;;;3.55;;
9260;SDS011;4667;42.726;23.252;2023-06-10T08:35:17;3.13;;;2.60;;
9260;SDS011;4667;42.726;23.252;2023-06-10T08:37:44;3.25;;;2.40;;
9260;SDS011;4667;42.726;23.252;2023-06-10T08:40:11;3.88;;;2.88;;
9260;SDS011;4667;42.726;23.252;2023-06-10T08:42:39;4.93;;;2.45;;
9260;SDS011;4667;42.726;23.252;2023-06-10T08:45:12;2.83;;;2.13;;
9260;SDS011;4667;42.726;23.252;2023-06-10T08:47:45;4.18;;;2.47;;
9260;SDS011;4667;42.726;23.252;2023-06-10T08:50:12;6.72;;;2.45;;
9260;SDS011;4667;42.726;23.252;2023-06-10T08:52:42;3.03;;;2.40;;
9260;SDS011;4667;42.726;23.252;2023-06-10T08:55:11;4.53;;;2.63;;
9260;SDS011;4667;42.726;23.252;2023-06-10T08:57:41;5.88;;;2.53;;
9260;SDS011;4667;42.726;23.252;2023-06-10T09:00:10;4.82;;;2.30;;
9260;SDS011;4667;42.726;23.252;2023-06-10T09:02:38;4.60;;;2.67;;
9260;SDS011;4667;42.726;23.252;2023-06-10T09:05:07;4.05;;;2.15;;
9260;SDS011;4667;42.726;23.252;2023-06-10T09:07:34;3.13;;;2.47;;
9260;SDS011;4667;42.726;23.252;2023-06-10T09:10:02;3.00;;;2.45;;
9260;SDS011;4667;42.726;23.252;2023-06-10T09:12:32;2.60;;;2.15;;
9260;SDS011;4667;42.726;23.252;2023-06-10T09:15:00;9.50;;;3.70;;
9260;SDS011;4667;42.726;23.252;2023-06-10T09:17:27;3.22;;;2.13;;
9260;SDS011;4667;42.726;23.252;2023-06-10T09:19:54;6.78;;;4.55;;
9260;SDS011;4667;42.726;23.252;2023-06-10T09:22:23;2.33;;;1.65;;
9260;SDS011;4667;42.726;23.252;2023-06-10T09:24:51;3.30;;;2.10;;
9260;SDS011;4667;42.726;23.252;2023-06-10T09:27:29;1.60;;;1.45;;
9260;SDS011;4667;42.726;23.252;2023-06-10T09:29:56;2.47;;;1.63;;
9260;SDS011;4667;42.726;23.252;2023-06-10T09:32:24;3.35;;;1.92;;
9260;SDS011;4667;42.726;23.252;2023-06-10T09:34:52;6.20;;;2.40;;
9260;SDS011;4667;42.726;23.252;2023-06-10T09:37:19;5.25;;;1.88;;
9260;SDS011;4667;42.726;23.252;2023-06-10T09:39:56;2.35;;;2.03;;
9260;SDS011;4667;42.726;23.252;2023-06-10T09:42:29;2.78;;;1.83;;
9260;SDS011;4667;42.726;23.252;2023-06-10T09:44:59;3.38;;;2.08;;
9260;SDS011;4667;42.726;23.252;2023-06-10T09:47:26;2.22;;;1.58;;
9260;SDS011;4667;42.726;23.252;2023-06-10T09:49:53;2.08;;;1.88;;
9260;SDS011;4667;42.726;23.252;2023-06-10T09:52:23;5.20;;;2.92;;
9260;SDS011;4667;42.726;23.252;2023-06-10T09:54:50;2.92;;;2.08;;
9260;SDS011;4667;42.726;23.252;2023-06-10T09:57:19;4.07;;;2.60;;
9260;SDS011;4667;42.726;23.252;2023-06-10T09:59:47;5.13;;;2.72;;
9260;SDS011;4667;42.726;23.252;2023-06-10T10:02:14;7.18;;;3.97;;
9260;SDS011;4667;42.726;23.252;2023-06-10T10:04:41;2.13;;;1.80;;
9260;SDS011;4667;42.726;23.252;2023-06-10T10:07:08;2.67;;;1.80;;
9260;SDS011;4667;42.726;23.252;2023-06-10T10:09:36;3.25;;;2.20;;
9260;SDS011;4667;42.726;23.252;2023-06-10T10:12:03;1.95;;;1.75;;
9260;SDS011;4667;42.726;23.252;2023-06-10T10:14:35;2.13;;;1.70;;
9260;SDS011;4667;42.726;23.252;2023-06-10T10:17:04;2.20;;;1.63;;
9260;SDS011;4667;42.726;23.252;2023-06-10T10:19:34;3.05;;;1.85;;
9260;SDS011;4667;42.726;23.252;2023-06-10T10:22:06;2.25;;;1.73;;
9260;SDS011;4667;42.726;23.252;2023-06-10T10:24:36;7.40;;;2.95;;
9260;SDS011;4667;42.726;23.252;2023-06-10T10:27:10;2.28;;;1.63;;
9260;SDS011;4667;42.726;23.252;2023-06-10T10:29:45;2.75;;;1.90;;
9260;SDS011;4667;42.726;23.252;2023-06-10T10:32:14;3.55;;;2.33;;
9260;SDS011;4667;42.726;23.252;2023-06-10T10:34:43;2.80;;;1.70;;
9260;SDS011;4667;42.726;23.252;2023-06-10T10:37:17;2.40;;;1.80;;
9260;SDS011;4667;42.726;23.252;2023-06-10T10:39:44;2.42;;;1.70;;
9260;SDS011;4667;42.726;23.252;2023-06-10T10:42:11;3.17;;;2.10;;
9260;SDS011;4667;42.726;23.252;2023-06-10T10:44:39;4.30;;;2.20;;
9260;SDS011;4667;42.726;23.252;2023-06-10T10:47:09;6.03;;;1.98;;
9260;SDS011;4667;42.726;23.252;2023-06-10T10:49:37;1.98;;;1.75;;
9260;SDS011;4667;42.726;23.252;2023-06-10T10:52:08;1.95;;;1.70;;
9260;SDS011;4667;42.726;23.252;2023-06-10T10:54:41;1.83;;;1.63;;
9260;SDS011;4667;42.726;23.252;2023-06-10T10:57:12;2.67;;;1.67;;
9260;SDS011;4667;42.726;23.252;2023-06-10T10:59:51;3.15;;;1.95;;
9260;SDS011;4667;42.726;23.252;2023-06-10T11:02:36;3.05;;;1.92;;
9260;SDS011;4667;42.726;23.252;2023-06-10T11:05:08;2.47;;;2.28;;
9260;SDS011;4667;42.726;23.252;2023-06-10T11:07:36;5.32;;;2.20;;
9260;SDS011;4667;42.726;23.252;2023-06-10T11:10:07;2.55;;;2.08;;
9260;SDS011;4667;42.726;23.252;2023-06-10T11:12:51;4.00;;;2.75;;
9260;SDS011;4667;42.726;23.252;2023-06-10T11:15:27;3.45;;;1.98;;
9260;SDS011;4667;42.726;23.252;2023-06-10T11:18:22;2.22;;;2.00;;
9260;SDS011;4667;42.726;23.252;2023-06-10T11:20:57;3.25;;;2.15;;
9260;SDS011;4667;42.726;23.252;2023-06-10T11:23:32;3.58;;;2.35;;
9260;SDS011;4667;42.726;23.252;2023-06-10T11:29:03;2.40;;;2.20;;
9260;SDS011;4667;42.726;23.252;2023-06-10T11:31:31;3.58;;;2.25;;
9260;SDS011;4667;42.726;23.252;2023-06-10T11:34:01;3.50;;;2.70;;
9260;SDS011;4667;42.726;23.252;2023-06-10T11:36:30;5.38;;;2.10;;
9260;SDS011;4667;42.726;23.252;2023-06-10T11:38:58;3.58;;;2.50;;
9260;SDS011;4667;42.726;23.252;2023-06-10T11:41:27;3.35;;;2.38;;
9260;SDS011;4667;42.726;23.252;2023-06-10T11:43:56;13.30;;;3.08;;
9260;SDS011;4667;42.726;23.252;2023-06-10T11:46:23;3.88;;;2.35;;
9260;SDS011;4667;42.726;23.252;2023-06-10T11:48:52;2.50;;;2.30;;
9260;SDS011;4667;42.726;23.252;2023-06-10T11:51:23;2.47;;;2.28;;
9260;SDS011;4667;42.726;23.252;2023-06-10T11:53:52;3.15;;;2.35;;
9260;SDS011;4667;42.726;23.252;2023-06-10T11:56:20;11.70;;;6.50;;
9260;SDS011;4667;42.726;23.252;2023-06-10T11:58:51;10.25;;;5.97;;
9260;SDS011;4667;42.726;23.252;2023-06-10T12:01:19;26.05;;;5.15;;
9260;SDS011;4667;42.726;23.252;2023-06-10T12:03:47;8.88;;;2.85;;
9260;SDS011;4667;42.726;23.252;2023-06-10T12:06:14;2.67;;;2.17;;
9260;SDS011;4667;42.726;23.252;2023-06-10T12:08:42;7.32;;;2.60;;
9260;SDS011;4667;42.726;23.252;2023-06-10T12:11:09;4.30;;;2.30;;
9260;SDS011;4667;42.726;23.252;2023-06-10T12:13:36;2.40;;;2.15;;
9260;SDS011;4667;42.726;23.252;2023-06-10T12:16:12;6.00;;;2.70;;
9260;SDS011;4667;42.726;23.252;2023-06-10T12:18:38;3.13;;;2.28;;
9260;SDS011;4667;42.726;23.252;2023-06-10T12:21:14;2.42;;;2.10;;
9260;SDS011;4667;42.726;23.252;2023-06-10T12:26:38;7.40;;;4.03;;
9260;SDS011;4667;42.726;23.252;2023-06-10T12:29:20;4.53;;;3.05;;
9260;SDS011;4667;42.726;23.252;2023-06-10T12:31:57;3.20;;;2.55;;
9260;SDS011;4667;42.726;23.252;2023-06-10T12:34:32;4.15;;;2.80;;
9260;SDS011;4667;42.726;23.252;2023-06-10T12:37:01;3.85;;;2.50;;
9260;SDS011;4667;42.726;23.252;2023-06-10T12:39:30;3.50;;;2.53;;
9260;SDS011;4667;42.726;23.252;2023-06-10T12:41:57;3.38;;;2.50;;
9260;SDS011;4667;42.726;23.252;2023-06-10T12:44:31;2.63;;;2.08;;
9260;SDS011;4667;42.726;23.252;2023-06-10T12:46:59;4.25;;;2.28;;
9260;SDS011;4667;42.726;23.252;2023-06-10T12:49:26;2.90;;;2.20;;
9260;SDS011;4667;42.726;23.252;2023-06-10T12:51:53;3.40;;;2.40;;
9260;SDS011;4667;42.726;23.252;2023-06-10T12:54:20;3.33;;;2.28;;
9260;SDS011;4667;42.726;23.252;2023-06-10T12:56:49;2.67;;;2.20;;
9260;SDS011;4667;42.726;23.252;2023-06-10T12:59:16;4.50;;;2.42;;
9260;SDS011;4667;42.726;23.252;2023-06-10T13:01:43;15.18;;;9.13;;
9260;SDS011;4667;42.726;23.252;2023-06-10T13:04:09;3.45;;;2.40;;
9260;SDS011;4667;42.726;23.252;2023-06-10T13:06:36;4.38;;;3.00;;
9260;SDS011;4667;42.726;23.252;2023-06-10T13:09:07;8.02;;;3.60;;
9260;SDS011;4667;42.726;23.252;2023-06-10T13:11:34;5.70;;;2.97;;
9260;SDS011;4667;42.726;23.252;2023-06-10T13:14:03;4.45;;;2.95;;
9260;SDS011;4667;42.726;23.252;2023-06-10T13:16:31;8.60;;;3.00;;
9260;SDS011;4667;42.726;23.252;2023-06-10T13:18:58;4.05;;;3.13;;
9260;SDS011;4667;42.726;23.252;2023-06-10T13:21:25;4.55;;;2.80;;
9260;SDS011;4667;42.726;23.252;2023-06-10T13:23:51;6.32;;;3.28;;
9260;SDS011;4667;42.726;23.252;2023-06-10T13:26:18;4.55;;;3.20;;
9260;SDS011;4667;42.726;23.252;2023-06-10T13:28:45;4.53;;;3.05;;
9260;SDS011;4667;42.726;23.252;2023-06-10T13:31:13;3.60;;;3.00;;
9260;SDS011;4667;42.726;23.252;2023-06-10T13:33:40;5.97;;;3.33;;
9260;SDS011;4667;42.726;23.252;2023-06-10T13:36:08;4.68;;;3.70;;
9260;SDS011;4667;42.726;23.252;2023-06-10T13:38:35;5.15;;;3.38;;
9260;SDS011;4667;42.726;23.252;2023-06-10T13:41:02;5.30;;;3.55;;
9260;SDS011;4667;42.726;23.252;2023-06-10T13:43:29;5.78;;;3.67;;
9260;SDS011;4667;42.726;23.252;2023-06-10T13:46:08;5.85;;;2.85;;
9260;SDS011;4667;42.726;23.252;2023-06-10T13:48:38;3.15;;;2.60;;
9260;SDS011;4667;42.726;23.252;2023-06-10T13:51:05;4.03;;;3.63;;
9260;SDS011;4667;42.726;23.252;2023-06-10T13:53:34;6.18;;;3.63;;
9260;SDS011;4667;42.726;23.252;2023-06-10T13:56:00;4.43;;;3.33;;
9260;SDS011;4667;42.726;23.252;2023-06-10T13:58:27;6.90;;;3.85;;
9260;SDS011;4667;42.726;23.252;2023-06-10T14:00:54;5.53;;;3.70;;
9260;SDS011;4667;42.726;23.252;2023-06-10T14:03:21;6.70;;;3.45;;
9260;SDS011;4667;42.726;23.252;2023-06-10T14:05:49;5.00;;;3.08;;
9260;SDS011;4667;42.726;23.252;2023-06-10T14:08:16;8.02;;;3.70;;
9260;SDS011;4667;42.726;23.252;2023-06-10T14:10:43;7.30;;;3.55;;
9260;SDS011;4667;42.726;23.252;2023-06-10T14:13:10;10.90;;;6.82;;
9260;SDS011;4667;42.726;23.252;2023-06-10T14:15:36;4.25;;;3.40;;
9260;SDS011;4667;42.726;23.252;2023-06-10T14:18:04;5.13;;;2.80;;
9260;SDS011;4667;42.726;23.252;2023-06-10T14:20:31;4.45;;;3.22;;
9260;SDS011;4667;42.726;23.252;2023-06-10T14:22:59;5.13;;;3.38;;
9260;SDS011;4667;42.726;23.252;2023-06-10T14:25:25;4.30;;;3.20;;
9260;SDS011;4667;42.726;23.252;2023-06-10T14:27:52;6.70;;;3.42;;
9260;SDS011;4667;42.726;23.252;2023-06-10T14:30:19;6.35;;;3.10;;
9260;SDS011;4667;42.726;23.252;2023-06-10T14:32:46;11.23;;;7.22;;
9260;SDS011;4667;42.726;23.252;2023-06-10T14:35:13;4.07;;;3.20;;
9260;SDS011;4667;42.726;23.252;2023-06-10T14:37:39;4.50;;;2.97;;
9260;SDS011;4667;42.726;23.252;2023-06-10T14:40:08;4.47;;;3.17;;
9260;SDS011;4667;42.726;23.252;2023-06-10T14:42:35;4.72;;;3.42;;
9260;SDS011;4667;42.726;23.252;2023-06-10T14:45:04;3.53;;;2.58;;
9260;SDS011;4667;42.726;23.252;2023-06-10T14:47:32;4.35;;;3.15;;
9260;SDS011;4667;42.726;23.252;2023-06-10T14:50:02;5.40;;;2.72;;
9260;SDS011;4667;42.726;23.252;2023-06-10T14:52:29;5.95;;;2.92;;
9260;SDS011;4667;42.726;23.252;2023-06-10T14:54:56;4.93;;;3.08;;
9260;SDS011;4667;42.726;23.252;2023-06-10T14:57:24;4.50;;;2.70;;
9260;SDS011;4667;42.726;23.252;2023-06-10T14:59:50;4.78;;;2.75;;
9260;SDS011;4667;42.726;23.252;2023-06-10T15:02:17;2.92;;;2.55;;
9260;SDS011;4667;42.726;23.252;2023-06-10T15:04:44;4.35;;;3.22;;
9260;SDS011;4667;42.726;23.252;2023-06-10T15:07:10;4.82;;;2.50;;
9260;SDS011;4667;42.726;23.252;2023-06-10T15:09:37;4.05;;;3.05;;
9260;SDS011;4667;42.726;23.252;2023-06-10T15:12:04;4.30;;;2.45;;